Time;durP1;ratioP1;P1;durP2;ratioP2;P2;SDS_P1;SDS_P2;PMS_P1;PMS_P2;Temp;Humidity;BMP_temperature;BMP_pressure;BME280_temperature;BME280_humidity;BME280_pressure;Samples;Min_cycle;Max_cycle;Signal;HPM_P1;HPM_P2
2021/10/03 00:00:37;;;;;;;37.35;11.93;;;;;;;3.86;100.00;102372.84;1604336;86;22496;-85
2021/10/03 00:03:09;;;;;;;28.67;10.78;;;;;;;3.83;100.00;102371.35;1604397;88;21067;-85
2021/10/03 00:05:36;;;;;;;28.62;10.60;;;;;;;3.81;100.00;102376.02;1604305;86;21075;-85
2021/10/03 00:08:04;;;;;;;28.90;10.53;;;;;;;3.78;100.00;102371.03;1604464;87;21300;-85
2021/10/03 00:10:30;;;;;;;29.63;10.48;;;;;;;3.75;100.00;102370.55;1604158;87;21172;-85
2021/10/03 00:13:03;;;;;;;27.80;8.98;;;;;;;3.73;100.00;102370.70;1604545;87;21316;-85
2021/10/03 00:15:24;;;;;;;30.43;10.95;;;;;;;3.70;100.00;102372.37;1603960;87;21563;-85
2021/10/03 00:17:51;;;;;;;30.60;10.00;;;;;;;3.66;100.00;102369.73;1604624;87;21100;-85
2021/10/03 00:20:18;;;;;;;27.20;10.65;;;;;;;3.60;100.00;102367.74;1604457;87;21664;-86
2021/10/03 00:22:44;;;;;;;25.48;10.15;;;;;;;3.56;100.00;102369.92;1604697;87;21067;-85
2021/10/03 00:25:13;;;;;;;25.55;10.25;;;;;;;3.53;100.00;102368.07;1604677;87;21170;-85
2021/10/03 00:27:44;;;;;;;26.68;9.88;;;;;;;3.51;100.00;102372.25;1604168;87;21200;-85
2021/10/03 00:30:13;;;;;;;21.07;8.70;;;;;;;3.48;100.00;102369.09;1604658;86;21171;-85
2021/10/03 00:32:39;;;;;;;29.77;9.65;;;;;;;3.44;100.00;102361.92;1604339;87;21110;-86
2021/10/03 00:35:06;;;;;;;22.82;8.88;;;;;;;3.40;100.00;102368.59;1604455;87;21099;-85
2021/10/03 00:37:32;;;;;;;17.98;7.30;;;;;;;3.33;100.00;102364.45;1677535;83;21342;-86
2021/10/03 00:39:58;;;;;;;17.32;7.50;;;;;;;3.29;100.00;102363.10;1692054;81;22218;-86
2021/10/03 00:42:26;;;;;;;28.70;11.60;;;;;;;3.28;100.00;102359.29;1692317;83;21306;-86
2021/10/03 00:44:52;;;;;;;46.35;18.37;;;;;;;3.29;100.00;102366.27;1687919;84;21047;-85
2021/10/03 00:47:18;;;;;;;30.65;11.55;;;;;;;3.28;100.00;102360.12;1692276;83;21008;-85
2021/10/03 00:49:45;;;;;;;39.45;15.25;;;;;;;3.30;100.00;102363.45;1692644;83;21212;-85
2021/10/03 00:52:12;;;;;;;35.35;13.85;;;;;;;3.28;100.00;102366.78;1692350;83;20993;-86
2021/10/03 00:54:38;;;;;;;36.33;14.18;;;;;;;3.28;100.00;102369.44;1692114;83;21035;-86
2021/10/03 00:57:05;;;;;;;39.03;15.18;;;;;;;3.26;100.00;102365.27;1692074;83;21059;-85
2021/10/03 00:59:32;;;;;;;57.53;22.07;;;;;;;3.26;100.00;102367.94;1692339;83;21096;-85
2021/10/03 01:01:58;;;;;;;42.33;17.00;;;;;;;3.27;100.00;102365.63;1692274;81;21140;-85
2021/10/03 01:04:25;;;;;;;27.65;11.43;;;;;;;3.27;100.00;102366.45;1692346;83;21060;-86
2021/10/03 01:06:51;;;;;;;25.48;8.50;;;;;;;3.30;100.00;102369.29;1692259;83;21079;-85
2021/10/03 01:09:20;;;;;;;23.65;8.30;;;;;;;3.31;100.00;102372.28;1691827;83;20943;-85
2021/10/03 01:11:47;;;;;;;26.35;8.45;;;;;;;3.33;100.00;102368.95;1692468;83;21119;-85
2021/10/03 01:14:15;;;;;;;19.60;8.20;;;;;;;3.36;100.00;102373.44;1692133;83;22011;-86
2021/10/03 01:16:41;;;;;;;22.32;8.08;;;;;;;3.37;100.00;102371.09;1687835;83;21505;-86
2021/10/03 01:19:09;;;;;;;23.90;8.08;;;;;;;3.41;100.00;102375.11;1692144;83;20997;-86
2021/10/03 01:21:35;;;;;;;22.02;7.20;;;;;;;3.42;100.00;102375.94;1692056;83;21024;-86
2021/10/03 01:24:01;;;;;;;16.10;7.55;;;;;;;3.44;100.00;102377.08;1692202;83;21051;-85
2021/10/03 01:26:30;;;;;;;20.12;7.85;;;;;;;3.44;100.00;102371.25;1692303;83;21111;-85
2021/10/03 01:28:57;;;;;;;19.27;7.53;;;;;;;3.46;100.00;102371.09;1692185;83;21075;-85
2021/10/03 01:31:28;;;;;;;20.80;8.58;;;;;;;3.43;100.00;102371.43;1692313;83;21043;-85
2021/10/03 01:33:57;;;;;;;22.85;8.53;;;;;;;3.35;100.00;102370.45;1692312;83;21008;-85
2021/10/03 01:36:25;;;;;;;19.20;7.83;;;;;;;3.31;100.00;102374.94;1664528;83;21614;-85
2021/10/03 01:38:52;;;;;;;20.92;8.65;;;;;;;3.30;100.00;102371.95;1692597;83;22553;-85
2021/10/03 01:41:18;;;;;;;24.12;9.33;;;;;;;3.32;100.00;102368.59;1691594;83;21059;-85
2021/10/03 01:43:45;;;;;;;21.80;8.75;;;;;;;3.35;100.00;102367.79;1692086;83;20989;-85
2021/10/03 01:46:11;;;;;;;23.90;8.48;;;;;;;3.37;100.00;102371.59;1692047;83;21051;-85
2021/10/03 01:48:37;;;;;;;23.75;9.30;;;;;;;3.39;100.00;102368.28;1692029;83;21616;-85
2021/10/03 01:51:08;;;;;;;24.00;9.98;;;;;;;3.40;100.00;102372.59;1692135;83;21090;-85
2021/10/03 01:53:48;;;;;;;21.45;8.30;;;;;;;3.38;100.00;102368.78;1692239;83;21048;-86
2021/10/03 01:56:16;;;;;;;18.57;7.83;;;;;;;3.32;100.00;102372.59;1690158;83;21065;-85
2021/10/03 01:58:50;;;;;;;23.75;8.70;;;;;;;3.30;100.00;102368.78;1692268;83;21031;-86
2021/10/03 02:01:27;;;;;;;21.55;8.90;;;;;;;3.33;100.00;102370.28;1692100;83;21071;-85
2021/10/03 02:03:53;;;;;;;21.33;8.55;;;;;;;3.37;100.00;102371.09;1617639;87;21290;-84
2021/10/03 02:06:20;;;;;;;21.37;8.30;;;;;;;3.39;100.00;102364.28;1617630;87;21074;-85
2021/10/03 02:08:57;;;;;;;20.45;8.28;;;;;;;3.43;100.00;102364.77;1617866;87;21019;-85
2021/10/03 02:11:27;;;;;;;27.30;9.70;;;;;;;3.46;100.00;102358.59;1617439;87;21090;-85
2021/10/03 02:13:53;;;;;;;22.82;8.35;;;;;;;3.48;100.00;102361.93;1617521;87;21077;-85
2021/10/03 02:16:19;;;;;;;22.70;8.35;;;;;;;3.46;100.00;102358.59;1617507;87;21955;-85
2021/10/03 02:18:46;;;;;;;28.10;9.70;;;;;;;3.47;100.00;102360.75;1617597;87;21070;-84
2021/10/03 02:21:14;;;;;;;26.37;11.00;;;;;;;3.49;100.00;102355.59;1613052;87;21086;-84
2021/10/03 02:23:41;;;;;;;28.45;10.93;;;;;;;3.53;100.00;102360.08;1597368;88;21518;-84
2021/10/03 02:26:08;;;;;;;30.60;10.10;;;;;;;3.60;100.00;102359.23;1596903;88;21067;-84
2021/10/03 02:28:34;;;;;;;28.73;10.98;;;;;;;3.68;100.00;102359.73;1597361;88;21142;-84
2021/10/03 02:31:07;;;;;;;30.15;10.00;;;;;;;3.74;100.00;102356.38;1597606;88;21227;-84
2021/10/03 02:33:37;;;;;;;26.90;10.28;;;;;;;3.80;100.00;102354.36;1597182;88;21283;-84
2021/10/03 02:36:04;;;;;;;26.45;9.33;;;;;;;3.89;100.00;102353.01;1597314;88;21209;-84
2021/10/03 02:38:31;;;;;;;26.82;9.80;;;;;;;3.98;100.00;102363.98;1597321;88;21603;-83
2021/10/03 02:41:00;;;;;;;26.23;9.98;;;;;;;4.04;100.00;102353.44;1596874;88;21844;-84
2021/10/03 02:43:31;;;;;;;27.22;10.50;;;;;;;4.12;100.00;102353.06;1596822;88;21055;-84
2021/10/03 02:45:59;;;;;;;27.52;10.35;;;;;;;4.18;100.00;102357.23;1597339;88;21120;-84
2021/10/03 02:48:27;;;;;;;29.98;9.63;;;;;;;4.24;100.00;102355.70;1597283;88;21083;-84
2021/10/03 02:50:54;;;;;;;22.45;8.88;;;;;;;4.29;100.00;102351.98;1597159;88;21141;-84
2021/10/03 02:53:23;;;;;;;24.40;9.78;;;;;;;4.36;100.00;102349.47;1597252;88;21112;-84
2021/10/03 02:55:50;;;;;;;21.93;8.88;;;;;;;4.45;100.00;102353.75;1597382;88;21138;-84
2021/10/03 02:58:17;;;;;;;24.45;9.05;;;;;;;4.52;100.00;102348.85;1597266;88;21062;-84
2021/10/03 03:00:47;;;;;;;25.70;10.05;;;;;;;4.60;100.00;102355.17;1644254;84;21031;-84
2021/10/03 03:03:13;;;;;;;24.35;9.58;;;;;;;4.64;100.00;102353.28;1666522;84;21101;-84
2021/10/03 03:05:39;;;;;;;24.55;9.40;;;;;;;4.73;100.00;102350.06;1666732;84;21159;-84
2021/10/03 03:08:06;;;;;;;22.62;9.30;;;;;;;4.82;100.00;102350.32;1666315;84;21061;-84
2021/10/03 03:10:32;;;;;;;19.32;7.47;;;;;;;4.90;100.00;102352.94;1666427;84;21570;-84
2021/10/03 03:12:59;;;;;;;19.92;7.28;;;;;;;4.98;100.00;102353.39;1666326;84;21101;-84
2021/10/03 03:15:25;;;;;;;19.05;7.28;;;;;;;5.04;100.00;102344.66;1666768;84;21089;-84
2021/10/03 03:17:52;;;;;;;19.07;6.90;;;;;;;5.11;100.00;102346.09;1666585;84;21978;-85
2021/10/03 03:20:19;;;;;;;18.25;7.35;;;;;;;5.17;100.00;102348.05;1666099;84;21499;-85
2021/10/03 03:22:45;;;;;;;16.67;6.40;;;;;;;5.23;100.00;102348.18;1685296;83;21075;-84
2021/10/03 03:25:13;;;;;;;15.53;6.37;;;;;;;5.30;100.00;102346.12;1691927;83;21133;-84
2021/10/03 03:27:40;;;;;;;16.73;6.47;;;;;;;5.35;100.00;102353.06;1692006;83;21047;-85
2021/10/03 03:30:11;;;;;;;17.25;6.47;;;;;;;5.40;100.00;102352.84;1691941;83;21029;-85
2021/10/03 03:32:38;;;;;;;15.63;6.35;;;;;;;5.48;100.00;102348.45;1691919;83;21087;-84
2021/10/03 03:35:06;;;;;;;17.57;6.47;;;;;;;5.54;100.00;102350.39;1691614;82;21048;-84
2021/10/03 03:37:32;;;;;;;16.93;6.47;;;;;;;5.59;100.00;102351.98;1692128;83;21067;-84
2021/10/03 03:39:58;;;;;;;18.57;6.45;;;;;;;5.66;100.00;102355.09;1683046;83;21493;-84
2021/10/03 03:42:24;;;;;;;18.55;6.58;;;;;;;5.73;100.00;102353.02;1662390;84;21160;-84
2021/10/03 03:44:50;;;;;;;17.60;6.72;;;;;;;5.77;100.00;102353.81;1662253;85;20909;-84
2021/10/03 03:47:16;;;;;;;16.85;6.00;;;;;;;5.83;100.00;102360.28;1662178;86;21795;-84
2021/10/03 03:49:43;;;;;;;14.63;6.17;;;;;;;5.87;100.00;102357.54;1662332;85;21068;-83
2021/10/03 03:52:09;;;;;;;14.78;5.70;;;;;;;5.92;100.00;102363.17;1645161;86;21067;-84
2021/10/03 03:54:35;;;;;;;20.80;6.40;;;;;;;5.97;100.00;102364.83;1662589;84;21533;-84
2021/10/03 03:57:02;;;;;;;14.00;5.78;;;;;;;6.04;100.00;102375.61;1662767;85;21112;-84
2021/10/03 03:59:28;;;;;;;12.37;5.58;;;;;;;6.08;100.00;102371.54;1662703;84;21123;-84
2021/10/03 04:01:53;;;;;;;12.65;5.40;;;;;;;6.13;100.00;102374.50;1662257;86;20898;-84
2021/10/03 04:04:20;;;;;;;13.00;6.17;;;;;;;6.19;100.00;102367.05;1662534;85;21004;-84
2021/10/03 04:06:48;;;;;;;14.45;6.08;;;;;;;6.27;100.00;102365.63;1662532;85;21084;-84
2021/10/03 04:09:15;;;;;;;16.35;6.33;;;;;;;6.32;100.00;102368.58;1662187;85;21065;-84
2021/10/03 04:11:40;;;;;;;16.62;7.03;;;;;;;6.40;100.00;102375.65;1662586;86;21442;-85
2021/10/03 04:14:06;;;;;;;18.32;7.08;;;;;;;6.48;100.00;102374.72;1662543;85;20933;-84
2021/10/03 04:16:33;;;;;;;19.40;7.12;;;;;;;6.56;100.00;102370.59;1662420;85;21580;-85
2021/10/03 04:18:59;;;;;;;15.23;6.22;;;;;;;6.66;100.00;102370.28;1662546;86;21134;-84
2021/10/03 04:21:25;;;;;;;14.58;5.53;;;;;;;6.80;100.00;102367.55;1662315;85;21702;-85
2021/10/03 04:23:51;;;;;;;12.88;6.20;;;;;;;6.96;100.00;102370.47;1662768;85;21073;-84
2021/10/03 04:26:17;;;;;;;16.05;6.17;;;;;;;7.12;100.00;102370.73;1662719;85;20968;-84
2021/10/03 04:28:43;;;;;;;14.25;5.97;;;;;;;7.30;100.00;102376.98;1662579;85;20925;-84
2021/10/03 04:31:09;;;;;;;15.05;6.30;;;;;;;7.46;100.00;102375.84;1662695;85;21147;-85
2021/10/03 04:33:40;;;;;;;14.50;5.90;;;;;;;7.92;100.00;102375.34;1662411;85;21063;-85
2021/10/03 04:36:04;;;;;;;16.85;5.80;;;;;;;9.05;100.00;102373.03;1661356;86;21120;-85
2021/10/03 04:38:30;;;;;;;12.28;5.62;;;;;;;9.97;100.00;102378.86;1668192;85;21012;-84
2021/10/03 04:40:56;;;;;;;13.83;5.47;;;;;;;10.79;100.00;102381.00;1673098;83;20921;-86
2021/10/03 04:43:22;;;;;;;13.65;5.35;;;;;;;12.08;100.00;102376.77;1695252;83;21156;-85
2021/10/03 04:45:48;;;;;;;12.45;5.45;;;;;;;12.15;100.00;102372.13;1706140;83;20964;-84
2021/10/03 04:48:14;;;;;;;15.45;6.12;;;;;;;11.50;100.00;102371.23;1686317;83;21154;-87
2021/10/03 04:50:40;;;;;;;11.20;5.17;;;;;;;11.08;100.00;102376.33;1689052;83;20950;-87
2021/10/03 04:53:06;;;;;;;15.93;5.65;;;;;;;10.78;100.00;102376.66;1700228;83;21075;-83
2021/10/03 04:55:32;;;;;;;14.50;5.90;;;;;;;10.63;100.00;102371.56;1693718;83;21167;-85
2021/10/03 04:57:58;;;;;;;10.23;4.95;;;;;;;10.52;100.00;102376.28;1689987;83;21047;-85
2021/10/03 05:00:24;;;;;;;10.55;5.37;;;;;;;10.48;100.00;102379.94;1699348;83;21464;-86
2021/10/03 05:02:50;;;;;;;13.50;5.17;;;;;;;11.99;100.00;102380.29;1662623;83;20910;-85
2021/10/03 05:05:16;;;;;;;9.55;5.00;;;;;;;13.77;100.00;102375.18;1656485;85;21502;-85
2021/10/03 05:07:42;;;;;;;10.45;4.95;;;;;;;15.40;100.00;102365.20;1656135;85;22417;-85
2021/10/03 05:10:08;;;;;;;12.33;5.00;;;;;;;16.78;94.68;102368.87;1657097;85;21109;-86
2021/10/03 05:12:35;;;;;;;13.53;5.22;;;;;;;17.56;74.10;102362.92;1656341;85;21068;-85
2021/10/03 05:15:01;;;;;;;10.80;5.08;;;;;;;18.59;70.09;102367.20;1656191;85;21064;-83
2021/10/03 05:17:27;;;;;;;10.58;4.75;;;;;;;19.22;63.05;102364.25;1656440;85;21170;-85
2021/10/03 05:19:52;;;;;;;8.25;4.03;;;;;;;19.74;56.54;102364.47;1656310;85;21168;-86
2021/10/03 05:22:19;;;;;;;10.25;4.40;;;;;;;20.55;54.13;102361.64;1660612;84;20986;-86
2021/10/03 05:24:45;;;;;;;7.97;4.03;;;;;;;21.15;51.18;102367.77;1685350;83;21495;-86
2021/10/03 05:27:11;;;;;;;8.53;4.17;;;;;;;21.36;47.00;102368.42;1687881;83;21073;-86
2021/10/03 05:29:37;;;;;;;10.70;4.47;;;;;;;21.84;47.17;102371.19;1663795;84;21179;-91
2021/10/03 05:32:03;;;;;;;8.80;4.28;;;;;;;22.72;45.94;102373.61;1664303;84;21109;-87
2021/10/03 05:34:29;;;;;;;7.33;4.17;;;;;;;23.00;42.62;102375.92;1675626;83;21018;-87
2021/10/03 05:36:55;;;;;;;8.93;4.30;;;;;;;22.93;42.72;102377.66;1692071;83;21127;-85
2021/10/03 05:39:21;;;;;;;8.48;4.12;;;;;;;23.46;40.89;102378.69;1692229;83;21038;-87
2021/10/03 05:41:47;;;;;;;7.62;4.12;;;;;;;23.61;40.18;102380.33;1691770;83;20923;-87
2021/10/03 05:44:13;;;;;;;10.10;4.35;;;;;;;23.59;40.04;102371.58;1692786;83;21163;-81
2021/10/03 05:46:39;;;;;;;7.45;4.08;;;;;;;23.99;38.65;102374.09;1693852;83;21051;-84
2021/10/03 05:49:06;;;;;;;6.75;4.10;;;;;;;24.06;38.52;102370.94;1697238;83;21092;-84
2021/10/03 05:51:35;;;;;;;8.78;4.08;;;;;;;23.88;36.20;102378.17;1695137;83;21071;-84
2021/10/03 05:54:00;;;;;;;11.30;5.05;;;;;;;23.78;36.84;102378.39;1690879;83;22191;-84
2021/10/03 05:56:26;;;;;;;6.58;4.33;;;;;;;23.34;36.07;102386.63;1692497;83;21020;-84
2021/10/03 05:58:52;;;;;;;7.87;5.25;;;;;;;23.34;36.07;102386.63;1690437;83;21550;-84
2021/10/03 06:01:18;;;;;;;11.12;5.30;;;;;;;23.78;36.98;102378.39;1700946;83;21316;-84
2021/10/03 06:03:47;;;;;;;10.53;6.30;;;;;;;24.43;35.05;102380.06;1691034;83;21079;-83
2021/10/03 06:06:13;;;;;;;14.03;6.70;;;;;;;24.27;34.55;102376.82;1695948;83;21024;-84
2021/10/03 06:08:39;;;;;;;15.10;5.20;;;;;;;24.22;34.24;102381.05;1688344;82;21158;-83
2021/10/03 06:11:06;;;;;;;11.22;4.80;;;;;;;23.97;33.87;102381.86;1695481;83;21552;-87
2021/10/03 06:13:32;;;;;;;9.55;4.80;;;;;;;24.06;34.15;102381.12;1686088;83;21139;-85
2021/10/03 06:15:58;;;;;;;11.93;4.55;;;;;;;24.63;33.88;102387.87;1697270;83;21074;-85
2021/10/03 06:18:25;;;;;;;9.93;5.22;;;;;;;24.64;33.57;102386.73;1692787;83;21103;-85
2021/10/03 06:20:52;;;;;;;21.45;5.53;;;;;;;25.36;32.39;102386.37;1709399;83;21113;-85
2021/10/03 06:23:19;;;;;;;12.53;5.17;;;;;;;24.93;32.28;102384.92;1696496;83;21055;-85
2021/10/03 06:25:45;;;;;;;9.50;4.25;;;;;;;25.14;33.19;102380.30;1694320;83;21480;-85
2021/10/03 06:28:11;;;;;;;8.90;4.47;;;;;;;25.19;31.60;102382.13;1694543;83;21154;-84
2021/10/03 06:30:37;;;;;;;16.77;4.35;;;;;;;25.62;32.21;102383.73;1694612;83;21016;-84
2021/10/03 06:33:12;;;;;;;8.63;3.52;;;;;;;25.90;30.60;102368.33;1694537;81;21798;-83
2021/10/03 06:35:37;;;;;;;10.95;3.65;;;;;;;25.40;30.67;102378.27;1694111;83;21044;-83
2021/10/03 06:38:03;;;;;;;13.78;3.70;;;;;;;25.08;30.68;102376.83;1694538;83;21028;-82
2021/10/03 06:40:29;;;;;;;6.60;3.17;;;;;;;24.97;31.41;102370.50;1694419;83;20976;-84
2021/10/03 06:42:56;;;;;;;10.23;3.50;;;;;;;25.28;30.68;102374.71;1694660;83;21035;-84
2021/10/03 06:45:23;;;;;;;11.20;3.98;;;;;;;25.20;30.07;102370.77;1694439;83;22039;-84
2021/10/03 06:47:52;;;;;;;7.12;3.20;;;;;;;25.33;31.11;102375.39;1694701;83;21000;-87
2021/10/03 06:50:18;;;;;;;13.72;3.52;;;;;;;25.66;29.72;102381.14;1694503;83;21040;-85
2021/10/03 06:52:44;;;;;;;10.95;3.60;;;;;;;25.66;29.38;102374.23;1688578;83;21013;-84
2021/10/03 06:55:10;;;;;;;5.70;3.08;;;;;;;25.86;29.87;102377.03;1690372;83;21695;-84
2021/10/03 06:57:37;;;;;;;13.60;3.02;;;;;;;26.34;29.09;102374.75;1694698;83;21153;-85
2021/10/03 07:00:06;;;;;;;8.08;3.42;;;;;;;26.12;28.98;102377.91;1694637;83;21016;-85
2021/10/03 07:02:33;;;;;;;16.17;3.52;;;;;;;26.55;28.73;102376.34;1694594;83;21067;-87
2021/10/03 07:04:59;;;;;;;10.45;3.33;;;;;;;26.55;29.02;102372.19;1694792;83;21052;-84
2021/10/03 07:07:25;;;;;;;12.23;3.90;;;;;;;26.96;28.20;102370.27;1694739;83;21034;-87
2021/10/03 07:09:51;;;;;;;16.32;5.00;;;;;;;27.22;28.32;102366.09;1694489;83;21190;-88
2021/10/03 07:12:17;;;;;;;13.53;6.83;;;;;;;27.52;27.64;102366.95;1659910;84;21051;-84
2021/10/03 07:14:43;;;;;;;14.63;4.20;;;;;;;27.76;27.30;102366.92;1666015;84;21089;-85
2021/10/03 07:17:11;;;;;;;12.30;3.30;;;;;;;28.05;26.35;102360.01;1665697;84;21056;-83
2021/10/03 07:19:37;;;;;;;13.88;3.65;;;;;;;27.21;26.66;102358.11;1665732;84;21140;-85
2021/10/03 07:22:03;;;;;;;11.25;3.37;;;;;;;26.94;27.40;102362.86;1665540;84;21153;-86
2021/10/03 07:24:30;;;;;;;8.33;3.47;;;;;;;26.82;26.96;102356.61;1645844;86;21030;-84
2021/10/03 07:26:57;;;;;;;8.40;3.17;;;;;;;26.94;26.94;102362.31;1650926;85;21042;-84
2021/10/03 07:29:23;;;;;;;6.78;3.20;;;;;;;27.10;27.00;102365.36;1648842;86;21095;-89
2021/10/03 07:31:49;;;;;;;5.55;3.10;;;;;;;26.77;27.02;102358.19;1645315;86;21188;-84
2021/10/03 07:34:15;;;;;;;10.40;2.80;;;;;;;27.26;26.72;102359.32;1649902;86;21104;-84
2021/10/03 07:36:43;;;;;;;8.65;2.50;;;;;;;27.32;26.78;102351.87;1629277;86;21119;-85
2021/10/03 07:39:09;;;;;;;13.80;3.60;;;;;;;27.62;25.89;102346.41;1637996;86;21599;-84
2021/10/03 07:41:37;;;;;;;10.45;3.50;;;;;;;27.30;25.42;102344.50;1640810;86;21056;-84
2021/10/03 07:44:08;;;;;;;11.97;4.37;;;;;;;26.65;25.83;102349.17;1648451;86;21590;-83
2021/10/03 07:46:33;;;;;;;36.08;9.98;;;;;;;26.45;26.35;102346.45;1615464;87;21031;-85
2021/10/03 07:48:59;;;;;;;16.75;6.12;;;;;;;25.53;25.91;102331.23;1616132;87;21564;-85
2021/10/03 07:51:25;;;;;;;22.00;9.38;;;;;;;25.23;26.91;102336.20;1616461;87;20908;-85
2021/10/03 07:53:51;;;;;;;10.53;3.37;;;;;;;25.81;26.41;102344.80;1640923;87;20988;-85
2021/10/03 07:56:16;;;;;;;8.70;2.50;;;;;;;25.64;26.07;102326.22;1644335;86;21059;-85
2021/10/03 07:58:43;;;;;;;7.95;3.05;;;;;;;25.70;26.29;102330.45;1673951;85;21075;-84
2021/10/03 08:01:09;;;;;;;20.97;4.30;;;;;;;25.77;26.50;102336.91;1669799;85;21106;-86
2021/10/03 08:03:37;;;;;;;9.50;2.40;;;;;;;25.71;26.05;102337.63;1667542;85;21076;-84
2021/10/03 08:06:04;;;;;;;5.97;2.50;;;;;;;25.44;25.90;102333.70;1624624;87;21123;-83
2021/10/03 08:08:30;;;;;;;7.55;2.22;;;;;;;25.41;25.53;102339.86;1621587;88;21102;-84
2021/10/03 08:10:56;;;;;;;17.82;2.87;;;;;;;25.45;24.80;102330.63;1621686;88;21237;-83
2021/10/03 08:13:22;;;;;;;30.92;3.20;;;;;;;25.81;25.15;102336.51;1621632;88;20999;-85
2021/10/03 08:15:48;;;;;;;35.98;3.50;;;;;;;25.68;24.02;102314.80;1621753;88;20947;-85
2021/10/03 08:18:14;;;;;;;8.03;2.58;;;;;;;24.98;24.75;102339.05;1621543;88;21074;-84
2021/10/03 08:20:41;;;;;;;10.08;3.30;;;;;;;24.79;25.96;102331.77;1621602;88;20920;-84
2021/10/03 08:23:09;;;;;;;5.60;2.72;;;;;;;25.01;25.62;102322.67;1623808;87;21140;-85
2021/10/03 08:25:35;;;;;;;7.17;2.60;;;;;;;25.12;25.55;102319.91;1631070;87;21558;-84
2021/10/03 08:28:01;;;;;;;19.42;3.05;;;;;;;25.25;25.81;102318.20;1631591;88;21086;-84
2021/10/03 08:30:27;;;;;;;6.37;2.30;;;;;;;25.65;25.81;102319.58;1631809;87;21094;-85
2021/10/03 08:32:53;;;;;;;9.38;2.30;;;;;;;25.93;25.41;102330.39;1609801;87;21010;-82
2021/10/03 08:35:19;;;;;;;7.42;2.45;;;;;;;26.00;24.89;102322.42;1631623;87;21103;-86
2021/10/03 08:37:45;;;;;;;6.80;2.25;;;;;;;26.41;24.09;102328.06;1631739;88;20899;-83
2021/10/03 08:40:13;;;;;;;10.25;2.58;;;;;;;26.44;23.45;102330.18;1631662;87;20896;-84
2021/10/03 08:42:41;;;;;;;2.37;2.00;;;;;;;26.33;23.43;102326.14;1637543;86;21115;-84
2021/10/03 08:45:08;;;;;;;9.75;2.22;;;;;;;26.21;23.22;102322.06;1661946;85;21001;-85
2021/10/03 08:47:41;;;;;;;6.28;2.10;;;;;;;26.06;23.55;102311.49;1661894;86;21146;-82
2021/10/03 08:50:14;;;;;;;11.33;2.75;;;;;;;25.73;23.74;102313.81;1661676;86;21036;-83
2021/10/03 08:52:42;;;;;;;8.78;2.40;;;;;;;24.62;24.41;102338.53;1662061;86;21114;-85
2021/10/03 08:55:11;;;;;;;9.08;2.35;;;;;;;23.29;25.56;102331.11;1654397;86;21068;-83
2021/10/03 08:57:38;;;;;;;5.37;2.00;;;;;;;22.48;26.32;102332.48;1662105;86;21192;-82
2021/10/03 09:00:19;;;;;;;7.08;2.10;;;;;;;21.61;27.22;102339.89;1661961;86;21188;-83
2021/10/03 09:03:04;;;;;;;8.95;2.20;;;;;;;20.75;27.82;102340.95;1661789;86;21088;-83
2021/10/03 09:05:35;;;;;;;6.97;2.15;;;;;;;20.15;28.83;102328.72;1661960;86;21111;-82
2021/10/03 09:08:15;;;;;;;4.22;2.02;;;;;;;19.82;29.53;102328.04;1661837;86;21138;-82
2021/10/03 09:11:00;;;;;;;4.47;2.33;;;;;;;19.99;30.43;102318.94;1662100;86;21193;-83
2021/10/03 09:13:38;;;;;;;12.63;2.83;;;;;;;20.06;29.92;102326.31;1660036;86;22108;-82
2021/10/03 09:19:10;;;;;;;7.83;2.92;;;;;;;19.91;30.35;102321.73;1634170;87;21653;-83
2021/10/03 09:21:43;;;;;;;13.20;3.90;;;;;;;19.85;30.40;102322.81;1632341;87;21086;-87
2021/10/03 09:24:16;;;;;;;10.10;3.60;;;;;;;19.45;30.70;102325.95;1618365;87;21120;-82
2021/10/03 09:29:34;;;;;;;7.25;2.05;;;;;;;20.03;30.80;102298.66;1573618;89;21254;-83
2021/10/03 09:32:10;;;;;;;11.30;2.60;;;;;;;20.11;31.22;102303.55;1573827;89;21024;-82
2021/10/03 09:34:40;;;;;;;5.08;2.40;;;;;;;20.04;30.11;102302.50;1573778;90;21186;-80
2021/10/03 09:37:28;;;;;;;7.42;2.50;;;;;;;19.81;30.57;102307.27;1573794;89;21562;-84
2021/10/03 09:40:12;;;;;;;6.22;2.22;;;;;;;19.55;31.28;102309.23;1570904;89;21180;-83
2021/10/03 09:42:39;;;;;;;6.67;2.98;;;;;;;19.45;30.80;102304.63;1573524;89;21075;-83
2021/10/03 09:45:13;;;;;;;6.75;2.15;;;;;;;19.61;31.07;102303.46;1573439;89;21127;-82
2021/10/03 09:47:44;;;;;;;11.57;2.77;;;;;;;19.71;30.27;102293.09;1573847;90;21460;-83
2021/10/03 09:50:14;;;;;;;5.83;2.40;;;;;;;19.63;30.89;102298.54;1573673;89;21090;-83
2021/10/03 09:52:41;;;;;;;11.12;2.47;;;;;;;19.70;30.47;102288.69;1573841;89;21823;-83
2021/10/03 09:55:13;;;;;;;5.10;2.22;;;;;;;19.43;30.59;102299.42;1573608;89;21530;-82
2021/10/03 09:57:38;;;;;;;6.15;2.25;;;;;;;19.09;31.41;102302.48;1573307;89;20992;-82
2021/10/03 10:00:06;;;;;;;6.60;2.37;;;;;;;18.90;31.28;102289.95;1573594;89;21527;-82
2021/10/03 10:02:32;;;;;;;7.40;2.30;;;;;;;18.54;31.82;102296.75;1523533;89;20986;-83
2021/10/03 10:04:58;;;;;;;3.45;2.12;;;;;;;18.28;32.35;102292.61;1516505;93;21136;-83
2021/10/03 10:07:25;;;;;;;8.48;2.10;;;;;;;18.08;32.64;102278.36;1497656;93;21134;-82
2021/10/03 10:09:51;;;;;;;11.05;2.27;;;;;;;17.93;32.86;102281.05;1516430;93;21118;-83
2021/10/03 10:12:21;;;;;;;5.70;1.90;;;;;;;17.91;33.40;102288.67;1516388;93;21109;-83
2021/10/03 10:14:57;;;;;;;5.45;1.82;;;;;;;17.90;33.29;102285.13;1491911;94;21160;-83
2021/10/03 10:17:35;;;;;;;6.60;2.52;;;;;;;17.87;33.34;102274.76;1473017;96;21769;-84
2021/10/03 10:20:22;;;;;;;6.42;2.30;;;;;;;17.88;33.60;102274.21;1478132;93;21077;-83
2021/10/03 10:23:01;;;;;;;6.85;2.27;;;;;;;17.74;33.70;102279.88;1518507;93;21168;-83
2021/10/03 10:25:52;;;;;;;4.90;2.20;;;;;;;17.70;33.77;102264.02;1503200;91;21099;-84
2021/10/03 10:28:35;;;;;;;8.33;2.10;;;;;;;17.76;33.40;102277.69;1569613;90;21138;-84
2021/10/03 10:31:17;;;;;;;12.28;3.52;;;;;;;17.59;33.38;102267.81;1568250;90;21106;-83
2021/10/03 10:34:02;;;;;;;5.55;2.15;;;;;;;17.54;34.17;102263.70;1569012;90;21610;-84
2021/10/03 10:36:51;;;;;;;11.05;2.22;;;;;;;17.55;34.01;102265.33;1569148;90;21172;-84
2021/10/03 10:39:21;;;;;;;4.92;1.67;;;;;;;17.47;33.97;102265.83;1520648;91;21115;-85
2021/10/03 10:41:58;;;;;;;11.00;2.52;;;;;;;17.44;34.14;102267.72;1520639;93;21160;-83
2021/10/03 10:44:30;;;;;;;9.63;2.15;;;;;;;17.44;33.98;102258.18;1520584;91;22026;-84
2021/10/03 10:47:03;;;;;;;5.60;2.45;;;;;;;17.48;34.21;102264.21;1493382;93;21054;-84
2021/10/03 10:49:41;;;;;;;;;;;;;;;17.44;34.33;102258.18;1492838;94;21070;-85
2021/10/03 10:52:25;;;;;;;20.88;3.55;;;;;;;17.49;34.19;102263.66;1470352;94;20570;-86
2021/10/03 10:55:05;;;;;;;10.32;2.22;;;;;;;17.46;34.35;102262.83;1493492;94;21127;-85
2021/10/03 10:57:34;;;;;;;6.97;2.02;;;;;;;17.46;34.06;102250.56;1494807;93;21160;-87
2021/10/03 11:00:28;;;;;;;10.98;3.35;;;;;;;17.56;34.68;102253.87;1476406;94;21506;-86
2021/10/03 11:03:00;;;;;;;11.53;2.33;;;;;;;17.72;34.68;102262.41;1433419;98;21217;-84
2021/10/03 11:05:43;;;;;;;4.72;2.70;;;;;;;17.69;34.04;102250.67;1433499;98;21102;-84
2021/10/03 11:08:15;;;;;;;;;;;;;;;17.55;34.36;102260.42;1435551;98;21252;-85
2021/10/03 11:11:09;;;;;;;4.37;2.17;;;;;;;17.64;34.54;102258.82;1432091;99;21216;-87
2021/10/03 11:13:50;;;;;;;16.87;3.83;;;;;;;17.56;34.12;102256.60;1428234;98;21121;-86
2021/10/03 11:16:46;;;;;;;5.60;2.52;;;;;;;17.46;34.37;102251.38;1417966;99;21112;-85
2021/10/03 11:19:16;;;;;;;9.20;2.22;;;;;;;17.46;35.09;102251.94;1417683;99;21173;-84
2021/10/03 11:21:49;;;;;;;4.00;1.98;;;;;;;17.51;34.53;102251.14;1408331;99;21176;-84
2021/10/03 11:24:38;;;;;;;6.33;2.12;;;;;;;17.52;34.71;102252.23;1447067;97;21217;-85
2021/10/03 11:27:14;;;;;;;13.13;2.80;;;;;;;17.56;35.07;102243.81;1425512;99;21121;-83
2021/10/03 11:29:53;;;;;;;8.83;3.20;;;;;;;17.62;35.07;102250.92;1425464;99;21238;-84
2021/10/03 11:32:23;;;;;;;12.15;3.00;;;;;;;17.65;34.54;102239.48;1425445;99;21792;-83